Airfield :
LOGIN :

Register | Disclaimer

   EN    FR    IT 

 










Legend :    VFR   Marginal VFR   IFR   Intensive IFR   Very Intensive IFR
Visi :
Ceiling :
>= 8 km
>= 3000ft
5 to 8 km
1000 to 3000 ft
1500m to 5 km
500 to 1000 ft
800 to 1500m
200 to 500 ft
< 800m
< 200 ft
Symbols :   Thunderstorms  Fog  Heavy snow  Heavy precipitations  Wind > 20 kt
SIGMETs :     Misc.  Thunderstorms  Icing  Turbulence  Mountain Waves  Volcanic Ashes






- Airport Elevation : 124 ft
- IATA code : AVN


LFMV - Avignon Caumont

CURRENT METAR :
  • 052230Z AUTO VRB02KT CAVOK 20/11 Q1014

EXPIRED METARs :
  • 052200Z AUTO 22006KT CAVOK 21/11 Q1014
  • 052130Z AUTO VRB03KT CAVOK 20/11 Q1014
  • 052100Z AUTO 16003KT 130V200 CAVOK 21/11 Q1014
  • 052030Z AUTO 27004KT 220V310 CAVOK 23/11 Q1014 NOSIG
  • 052000Z AUTO 24008KT CAVOK 24/11 Q1014 NOSIG

TAF TAF LFMV
Valid from the 05 at 15:00 until the 06 at 15:00 UTC


051400Z 0515/0615 28005KT CAVOK
ATIS : +33 4 90 84 32 84



MET'MAP, your aeronautical weather chart ! - Copyright ORBIFLY December 2007 - Disclaimer

ORBIFLY MET'MAP TEAM :

Programming & Development : Alexandra Zaïnal
Concept & original design : Baudouin d'Aumeries
Assistance for programming : Marc-Olivier Méhu
Technical & hardware support : Manuel Goepfert

Contact : metmap@orbifly.com




SOURCES & CREDITS :

   NOAA